Time;durP1;ratioP1;P1;durP2;ratioP2;P2;SDS_P1;SDS_P2;PMS_P1;PMS_P2;Temp;Humidity;BMP_temperature;BMP_pressure;BME280_temperature;BME280_humidity;BME280_pressure;Samples;Min_cycle;Max_cycle;Signal;HPM_P1;HPM_P2
2021/08/25 00:02:11;;;;;;;58.87;3.20;;;13.00;1.00;;;;;;5072574;28;20566;-71
2021/08/25 00:04:40;;;;;;;58.80;3.10;;;13.00;1.00;;;;;;5072479;28;20870;-71
2021/08/25 00:07:07;;;;;;;58.57;2.90;;;13.00;1.00;;;;;;5072430;28;20451;-71
2021/08/25 00:09:34;;;;;;;58.37;3.20;;;12.90;1.00;;;;;;5072094;28;20454;-71
2021/08/25 00:12:01;;;;;;;59.67;3.20;;;12.90;1.00;;;;;;5072162;28;21058;-71
2021/08/25 00:14:29;;;;;;;58.70;3.27;;;12.90;1.00;;;;;;5072105;28;20574;-71
2021/08/25 00:16:55;;;;;;;58.67;3.33;;;12.80;1.00;;;;;;5072374;28;20453;-71
2021/08/25 00:19:22;;;;;;;58.53;2.97;;;12.70;1.00;;;;;;5072283;28;20830;-71
2021/08/25 00:21:51;;;;;;;59.40;3.97;;;12.70;1.00;;;;;;5071977;28;20550;-71
2021/08/25 00:24:17;;;;;;;58.47;2.70;;;12.70;1.00;;;;;;5072348;28;20542;-71
2021/08/25 00:26:46;;;;;;;58.67;3.40;;;12.70;1.00;;;;;;5072429;28;20527;-71
2021/08/25 00:29:13;;;;;;;58.80;3.50;;;12.60;1.00;;;;;;5071983;28;20451;-71
2021/08/25 00:31:41;;;;;;;58.43;3.00;;;12.70;1.00;;;;;;5072344;28;20464;-71
2021/08/25 00:34:08;;;;;;;58.40;3.17;;;12.60;1.00;;;;;;5071966;28;20579;-71
2021/08/25 00:36:35;;;;;;;58.37;2.73;;;12.60;1.00;;;;;;5072106;28;20551;-71
2021/08/25 00:39:04;;;;;;;58.33;2.70;;;12.60;1.00;;;;;;5071873;28;20485;-71
2021/08/25 00:41:31;;;;;;;58.67;3.43;;;12.50;1.00;;;;;;5071713;28;21256;-71
2021/08/25 00:43:58;;;;;;;59.10;3.53;;;12.50;1.00;;;;;;5072062;28;20444;-71
2021/08/25 00:46:26;;;;;;;58.67;3.17;;;12.50;1.00;;;;;;5072142;28;20443;-71
2021/08/25 00:48:53;;;;;;;58.37;3.00;;;12.50;1.00;;;;;;5071982;28;20458;-71
2021/08/25 00:51:24;;;;;;;58.60;3.10;;;12.50;1.00;;;;;;5071520;28;20455;-71
2021/08/25 00:53:51;;;;;;;58.67;2.97;;;12.50;1.00;;;;;;5071982;28;20482;-71
2021/08/25 00:56:20;;;;;;;58.47;2.90;;;12.40;1.00;;;;;;5071979;28;20469;-71
2021/08/25 00:58:47;;;;;;;58.27;2.67;;;12.40;1.00;;;;;;5071842;28;20443;-71
2021/08/25 01:01:21;;;;;;;58.80;3.10;;;12.50;1.00;;;;;;5071596;28;20538;-71
2021/08/25 01:03:54;;;;;;;58.50;3.10;;;12.40;1.00;;;;;;5071784;28;20541;-71
2021/08/25 01:06:24;;;;;;;58.70;3.07;;;12.40;1.00;;;;;;5071921;28;20451;-71
2021/08/25 01:08:51;;;;;;;58.57;3.00;;;12.40;1.00;;;;;;5071863;28;20514;-71
2021/08/25 01:11:20;;;;;;;58.67;3.10;;;12.40;1.00;;;;;;5072758;28;20482;-71
2021/08/25 01:13:46;;;;;;;58.50;3.00;;;12.40;1.00;;;;;;5075642;28;20482;-71
2021/08/25 01:16:14;;;;;;;58.80;3.50;;;12.40;1.00;;;;;;5075580;28;20447;-71
2021/08/25 01:18:42;;;;;;;58.37;2.77;;;12.40;1.00;;;;;;5075581;28;20452;-71
2021/08/25 01:21:09;;;;;;;58.67;3.00;;;12.40;1.00;;;;;;5075501;28;20817;-71
2021/08/25 01:23:40;;;;;;;58.60;3.30;;;12.20;1.00;;;;;;5075454;28;20987;-71
2021/08/25 01:26:07;;;;;;;59.07;3.53;;;12.10;1.00;;;;;;5075799;28;20431;-71
2021/08/25 01:28:45;;;;;;;58.57;3.20;;;12.00;1.00;;;;;;5075380;28;20533;-71
2021/08/25 01:31:13;;;;;;;58.77;3.00;;;12.00;1.00;;;;;;5075452;28;20546;-71
2021/08/25 01:33:40;;;;;;;58.47;3.07;;;12.00;1.00;;;;;;5075627;28;20447;-71
2021/08/25 01:36:14;;;;;;;58.67;3.40;;;11.90;1.00;;;;;;5075588;28;20528;-71
2021/08/25 01:38:48;;;;;;;58.63;3.10;;;11.90;1.00;;;;;;5075244;28;20496;-71
2021/08/25 01:41:14;;;;;;;59.00;3.30;;;11.90;1.00;;;;;;5075006;28;20535;-71
2021/08/25 01:43:41;;;;;;;58.87;2.90;;;12.00;1.00;;;;;;5075389;28;20521;-71
2021/08/25 01:46:08;;;;;;;59.10;3.10;;;11.90;1.00;;;;;;5073862;28;20538;-71
2021/08/25 01:48:36;;;;;;;58.80;3.10;;;12.00;1.00;;;;;;5075068;28;20482;-71
2021/08/25 01:51:04;;;;;;;58.70;3.33;;;12.00;1.00;;;;;;5074789;28;20445;-71
2021/08/25 01:53:31;;;;;;;58.60;3.10;;;12.00;1.00;;;;;;5075129;28;20463;-72
2021/08/25 01:55:58;;;;;;;58.80;3.50;;;12.00;1.00;;;;;;5074878;28;20495;-71
2021/08/25 01:58:25;;;;;;;58.33;2.93;;;12.00;1.00;;;;;;5074916;28;20533;-71
2021/08/25 02:00:52;;;;;;;58.67;3.20;;;11.90;1.00;;;;;;5075234;28;20451;-71
2021/08/25 02:03:18;;;;;;;58.43;2.87;;;11.90;1.00;;;;;;5074605;28;20856;-71
2021/08/25 02:05:47;;;;;;;58.60;2.90;;;11.90;1.00;;;;;;5073483;28;20494;-71
2021/08/25 02:08:13;;;;;;;58.73;3.20;;;11.90;1.00;;;;;;5073491;28;20532;-71
2021/08/25 02:10:41;;;;;;;58.50;3.10;;;11.90;1.00;;;;;;5073258;28;20533;-71
2021/08/25 02:13:08;;;;;;;58.67;2.80;;;11.80;1.00;;;;;;5073517;28;20478;-71
2021/08/25 02:15:35;;;;;;;58.87;3.10;;;11.70;1.00;;;;;;5073399;28;20488;-71
2021/08/25 02:18:02;;;;;;;60.07;2.93;;;11.70;1.00;;;;;;5073452;28;20482;-71
2021/08/25 02:20:29;;;;;;;58.40;2.60;;;11.70;1.00;;;;;;5073384;28;20875;-71
2021/08/25 02:22:57;;;;;;;58.47;2.90;;;11.70;1.00;;;;;;5072785;28;20987;-71
2021/08/25 02:25:24;;;;;;;58.47;2.80;;;11.70;1.00;;;;;;5073129;28;20966;-71
2021/08/25 02:27:50;;;;;;;59.07;3.30;;;11.70;1.00;;;;;;5073258;28;20542;-71
2021/08/25 02:30:17;;;;;;;58.57;2.80;;;11.70;1.00;;;;;;5072944;28;20546;-71
2021/08/25 02:32:44;;;;;;;59.50;3.37;;;11.60;1.00;;;;;;5072862;28;20475;-72
2021/08/25 02:35:11;;;;;;;58.87;2.90;;;11.60;1.00;;;;;;5073214;28;20505;-71
2021/08/25 02:37:39;;;;;;;59.27;3.57;;;11.50;1.00;;;;;;5073251;28;20534;-71
2021/08/25 02:40:11;;;;;;;58.50;3.00;;;11.50;1.00;;;;;;5072934;28;20530;-71
2021/08/25 02:42:39;;;;;;;58.57;2.83;;;11.40;1.00;;;;;;5073223;28;20550;-71
2021/08/25 02:45:08;;;;;;;58.47;3.00;;;11.50;1.00;;;;;;5072853;28;20546;-71
2021/08/25 02:47:35;;;;;;;58.80;3.00;;;11.50;1.00;;;;;;5073138;28;20486;-71
2021/08/25 02:50:01;;;;;;;58.97;3.60;;;11.40;1.00;;;;;;5073005;28;20989;-70
2021/08/25 02:52:28;;;;;;;58.47;2.70;;;11.40;1.00;;;;;;5072751;28;21049;-70
2021/08/25 02:54:55;;;;;;;58.47;2.90;;;11.40;1.00;;;;;;5072626;28;20475;-71
2021/08/25 02:57:23;;;;;;;59.00;3.50;;;11.40;1.00;;;;;;5072915;28;20453;-71
2021/08/25 02:59:50;;;;;;;58.47;2.70;;;11.40;1.00;;;;;;5072525;28;20486;-70
2021/08/25 03:02:17;;;;;;;58.27;2.83;;;11.40;1.00;;;;;;5072893;28;20557;-70
2021/08/25 03:04:44;;;;;;;58.67;2.73;;;11.30;1.00;;;;;;5033860;28;1129482;-70
2021/08/25 03:07:11;;;;;;;60.20;3.63;;;11.30;1.00;;;;;;5073721;28;20449;-70
2021/08/25 03:09:37;;;;;;;58.70;3.10;;;11.30;1.00;;;;;;5073342;28;20544;-70
2021/08/25 03:12:05;;;;;;;59.37;3.00;;;11.30;1.00;;;;;;5073319;28;20498;-70
2021/08/25 03:14:33;;;;;;;62.03;3.97;;;11.30;1.00;;;;;;5073399;28;20515;-70
2021/08/25 03:17:00;;;;;;;58.80;2.93;;;11.30;1.00;;;;;;5073567;28;20447;-71
2021/08/25 03:19:27;;;;;;;58.60;3.10;;;11.30;1.00;;;;;;5073281;28;20906;-71
2021/08/25 03:21:54;;;;;;;58.87;3.20;;;11.30;1.00;;;;;;5073171;28;21038;-71
2021/08/25 03:24:21;;;;;;;58.63;3.20;;;11.30;1.00;;;;;;5073194;28;20451;-71
2021/08/25 03:26:48;;;;;;;58.73;3.10;;;11.30;1.00;;;;;;5073159;28;20458;-71
2021/08/25 03:29:15;;;;;;;58.40;2.90;;;11.30;1.00;;;;;;5073260;28;20530;-71
2021/08/25 03:31:43;;;;;;;58.73;3.00;;;11.20;1.00;;;;;;5073151;28;20522;-71
2021/08/25 03:34:10;;;;;;;58.67;3.10;;;11.20;1.00;;;;;;5072473;28;20443;-71
2021/08/25 03:36:37;;;;;;;58.63;2.90;;;11.10;1.00;;;;;;5072980;28;20530;-71
2021/08/25 03:39:04;;;;;;;59.90;4.13;;;11.00;1.00;;;;;;5072728;28;20947;-71
2021/08/25 03:41:32;;;;;;;58.50;3.20;;;11.00;1.00;;;;;;5073169;28;20485;-71
2021/08/25 03:43:59;;;;;;;58.67;2.90;;;11.00;1.00;;;;;;5073050;28;20829;-71
2021/08/25 03:46:26;;;;;;;58.47;2.53;;;11.00;1.00;;;;;;5072868;28;20446;-71
2021/08/25 03:48:54;;;;;;;58.80;3.10;;;11.00;1.00;;;;;;5072604;28;21031;-71
2021/08/25 03:51:21;;;;;;;58.37;2.67;;;11.00;1.00;;;;;;5072585;28;20486;-71
2021/08/25 03:53:48;;;;;;;58.57;3.30;;;11.00;1.00;;;;;;5073212;28;20526;-71
2021/08/25 03:56:15;;;;;;;58.90;3.07;;;11.00;1.00;;;;;;5072489;28;20515;-71
2021/08/25 03:58:42;;;;;;;58.60;2.83;;;11.00;1.00;;;;;;5073023;28;20490;-71
2021/08/25 04:01:08;;;;;;;58.53;2.90;;;11.00;1.00;;;;;;5072648;28;20465;-71
2021/08/25 04:03:35;;;;;;;63.07;3.40;;;11.00;1.00;;;;;;5072483;28;20494;-71
2021/08/25 04:06:05;;;;;;;58.60;3.10;;;11.00;1.00;;;;;;5072300;28;20944;-71
2021/08/25 04:08:32;;;;;;;58.77;3.03;;;11.00;1.00;;;;;;5072217;28;20447;-71
2021/08/25 04:10:58;;;;;;;58.73;3.17;;;11.00;1.00;;;;;;5072395;28;20534;-71
2021/08/25 04:13:25;;;;;;;58.47;2.70;;;11.00;1.00;;;;;;5072538;28;20544;-71
2021/08/25 04:15:52;;;;;;;58.60;3.00;;;11.00;1.00;;;;;;5072110;28;21078;-71
2021/08/25 04:18:19;;;;;;;59.07;3.47;;;10.90;1.00;;;;;;5072552;28;20442;-71
2021/08/25 04:20:46;;;;;;;60.23;4.27;;;10.90;1.00;;;;;;5071983;28;20871;-71
2021/08/25 04:23:14;;;;;;;58.57;3.00;;;10.80;1.00;;;;;;5071974;28;20550;-71
2021/08/25 04:25:42;;;;;;;58.60;2.90;;;10.80;1.00;;;;;;5072237;28;20455;-71
2021/08/25 04:28:09;;;;;;;58.60;3.00;;;10.70;1.00;;;;;;5072103;28;20936;-71
2021/08/25 04:30:36;;;;;;;58.90;3.60;;;10.70;1.00;;;;;;5072130;28;20549;-71
2021/08/25 04:33:03;;;;;;;58.60;2.90;;;10.70;1.00;;;;;;5071974;28;20550;-71
2021/08/25 04:35:30;;;;;;;58.57;2.90;;;10.70;1.00;;;;;;5071765;28;20892;-71
2021/08/25 04:37:57;;;;;;;59.73;3.27;;;10.70;1.00;;;;;;5071935;28;20931;-71
2021/08/25 04:40:25;;;;;;;59.27;3.47;;;10.70;1.00;;;;;;5071776;28;20538;-71
2021/08/25 04:42:52;;;;;;;59.43;3.10;;;10.70;1.00;;;;;;5071892;28;20550;-71
2021/08/25 04:45:19;;;;;;;58.50;3.00;;;10.70;1.00;;;;;;5071868;28;20471;-71
2021/08/25 04:47:46;;;;;;;59.27;3.27;;;10.70;1.00;;;;;;5071897;28;20450;-71
2021/08/25 04:50:13;;;;;;;58.57;2.77;;;10.70;1.00;;;;;;5071734;28;20448;-71
2021/08/25 04:52:40;;;;;;;58.97;3.60;;;10.80;1.00;;;;;;5071972;28;20506;-72
2021/08/25 04:55:08;;;;;;;58.70;2.77;;;10.70;1.00;;;;;;5071760;28;20483;-71
2021/08/25 04:57:36;;;;;;;59.20;4.13;;;10.70;1.00;;;;;;5072012;28;20451;-71
2021/08/25 05:00:05;;;;;;;58.17;2.60;;;10.70;1.00;;;;;;5071681;28;20538;-71
2021/08/25 05:02:32;;;;;;;58.60;3.07;;;10.70;1.00;;;;;;5071621;28;20473;-71
2021/08/25 05:04:58;;;;;;;58.73;3.00;;;10.70;1.00;;;;;;5071624;28;20547;-72
2021/08/25 05:07:25;;;;;;;58.80;3.10;;;10.70;1.00;;;;;;5071912;28;20813;-70
2021/08/25 05:09:52;;;;;;;58.63;3.10;;;10.70;1.00;;;;;;5071777;28;20453;-70
2021/08/25 05:12:19;;;;;;;58.87;3.20;;;10.80;1.00;;;;;;5071838;28;20558;-70
2021/08/25 05:14:47;;;;;;;58.77;3.00;;;10.70;1.00;;;;;;5071806;28;20446;-70
2021/08/25 05:17:14;;;;;;;58.57;3.10;;;10.70;1.00;;;;;;5071923;28;20908;-70
2021/08/25 05:19:41;;;;;;;58.70;3.50;;;10.70;1.00;;;;;;5071639;28;20530;-70
2021/08/25 05:22:09;;;;;;;58.50;2.80;;;10.70;1.00;;;;;;5071764;28;20467;-72
2021/08/25 05:24:37;;;;;;;58.83;3.87;;;10.70;1.10;;;;;;5071616;28;20512;-70
2021/08/25 05:27:04;;;;;;;58.57;3.10;;;10.80;2.70;;;;;;5071685;28;20439;-70
2021/08/25 05:29:31;;;;;;;58.43;2.90;;;10.80;3.70;;;;;;5071326;28;20442;-70
2021/08/25 05:31:59;;;;;;;58.33;2.80;;;10.80;4.40;;;;;;5071344;28;20466;-70
2021/08/25 05:34:26;;;;;;;58.90;3.27;;;10.80;5.60;;;;;;5071596;28;20443;-70
2021/08/25 05:36:53;;;;;;;58.57;3.10;;;10.80;6.80;;;;;;5071647;28;20581;-70
2021/08/25 05:39:19;;;;;;;59.10;3.87;;;10.90;9.80;;;;;;5071152;28;21042;-70
2021/08/25 05:41:46;;;;;;;58.80;3.20;;;10.90;11.50;;;;;;5071329;28;20463;-70
2021/08/25 05:44:13;;;;;;;58.50;3.20;;;11.00;14.30;;;;;;5071623;28;20482;-69
2021/08/25 05:46:40;;;;;;;58.87;3.07;;;11.00;15.80;;;;;;5071442;28;20439;-69
2021/08/25 05:49:08;;;;;;;59.10;3.20;;;11.00;18.30;;;;;;5071086;28;20457;-70
2021/08/25 05:51:35;;;;;;;58.47;3.20;;;11.10;20.70;;;;;;5071344;28;20551;-69
2021/08/25 05:54:02;;;;;;;59.30;2.90;;;11.10;23.20;;;;;;5071502;28;20443;-70
2021/08/25 05:56:29;;;;;;;58.17;2.80;;;11.20;24.90;;;;;;5071083;28;20577;-70
2021/08/25 05:58:55;;;;;;;58.47;2.77;;;11.30;26.80;;;;;;5074743;28;20483;-72
2021/08/25 06:01:24;;;;;;;58.50;3.10;;;11.40;29.20;;;;;;5074698;28;20482;-72
2021/08/25 06:03:51;;;;;;;58.13;3.00;;;11.40;29.80;;;;;;5074967;28;20470;-71
2021/08/25 06:06:19;;;;;;;58.50;2.83;;;11.50;31.00;;;;;;5074876;28;20507;-70
2021/08/25 06:08:46;;;;;;;58.30;2.80;;;11.60;31.10;;;;;;5074823;28;20535;-70
2021/08/25 06:11:13;;;;;;;58.37;3.10;;;11.60;33.20;;;;;;5074611;28;20533;-71
2021/08/25 06:13:40;;;;;;;58.60;3.10;;;11.70;33.90;;;;;;5074936;28;20443;-70
2021/08/25 06:16:08;;;;;;;58.30;3.00;;;11.80;34.70;;;;;;5074897;28;20509;-70
2021/08/25 06:18:34;;;;;;;59.60;3.10;;;11.80;36.00;;;;;;5074681;28;20540;-71
2021/08/25 06:21:01;;;;;;;58.43;2.80;;;11.90;36.70;;;;;;5074460;28;20475;-71
2021/08/25 06:23:29;;;;;;;58.23;2.60;;;12.00;38.50;;;;;;5074264;28;20559;-70
2021/08/25 06:25:56;;;;;;;58.80;3.50;;;12.00;39.20;;;;;;5074295;28;20536;-70
2021/08/25 06:28:23;;;;;;;59.00;3.20;;;12.10;39.50;;;;;;5074615;28;20534;-70
2021/08/25 06:30:50;;;;;;;58.80;3.40;;;12.10;40.30;;;;;;5074154;28;21051;-71
2021/08/25 06:33:17;;;;;;;58.30;3.00;;;12.20;40.60;;;;;;5074071;28;21038;-72
2021/08/25 06:35:44;;;;;;;58.90;3.50;;;12.30;42.20;;;;;;5074134;28;20521;-73
2021/08/25 06:38:10;;;;;;;59.10;3.77;;;12.30;41.20;;;;;;5074274;28;20486;-71
2021/08/25 06:40:39;;;;;;;58.80;3.47;;;12.40;41.60;;;;;;5074010;28;20481;-71
2021/08/25 06:43:06;;;;;;;58.53;3.10;;;12.50;41.10;;;;;;5074234;28;20550;-72
2021/08/25 06:45:33;;;;;;;61.63;4.10;;;12.50;41.20;;;;;;5074290;28;20888;-71
2021/08/25 06:47:59;;;;;;;58.70;3.03;;;12.60;41.40;;;;;;5074271;28;20504;-72
2021/08/25 06:50:26;;;;;;;58.87;3.57;;;12.70;41.60;;;;;;5074017;28;20487;-72
2021/08/25 06:52:53;;;;;;;58.57;3.50;;;12.70;41.30;;;;;;5073902;28;20574;-71
2021/08/25 06:55:20;;;;;;;58.47;3.30;;;12.70;41.40;;;;;;5073799;28;20447;-72
2021/08/25 06:57:48;;;;;;;58.60;2.80;;;12.80;39.80;;;;;;5073993;28;20862;-72
2021/08/25 07:00:18;;;;;;;58.40;3.10;;;12.90;39.10;;;;;;5073818;28;20490;-71
2021/08/25 07:02:44;;;;;;;58.27;3.00;;;13.00;38.40;;;;;;5073689;28;20478;-72
2021/08/25 07:05:12;;;;;;;58.40;3.00;;;13.00;38.10;;;;;;5073745;28;20542;-71
2021/08/25 07:07:38;;;;;;;58.27;3.37;;;13.10;37.60;;;;;;5073378;28;20540;-72
2021/08/25 07:10:07;;;;;;;58.97;3.50;;;13.10;36.40;;;;;;5072544;28;20554;-72
2021/08/25 07:12:34;;;;;;;58.40;3.40;;;13.20;35.60;;;;;;5073630;28;20565;-72
2021/08/25 07:15:02;;;;;;;59.93;3.40;;;13.30;35.00;;;;;;5073522;28;20509;-71
2021/08/25 07:17:29;;;;;;;58.47;3.20;;;13.40;33.10;;;;;;5073251;28;20528;-72
2021/08/25 07:19:56;;;;;;;58.57;3.17;;;13.50;28.10;;;;;;5073299;28;20448;-72
2021/08/25 07:22:22;;;;;;;58.57;3.10;;;13.50;21.60;;;;;;5073434;28;20559;-71
2021/08/25 07:24:49;;;;;;;58.27;3.10;;;13.60;9.30;;;;;;5073523;28;20478;-71
2021/08/25 07:27:16;;;;;;;58.83;3.33;;;13.70;3.40;;;;;;5073129;28;20530;-72
2021/08/25 07:29:43;;;;;;;59.10;3.50;;;13.80;1.00;;;;;;5073064;28;20453;-73
2021/08/25 07:32:11;;;;;;;58.17;2.83;;;13.90;1.00;;;;;;5073010;28;20582;-72
2021/08/25 07:34:38;;;;;;;59.33;3.67;;;14.00;1.00;;;;;;5072987;28;20511;-70
2021/08/25 07:37:05;;;;;;;58.40;3.10;;;14.10;1.00;;;;;;5072723;28;20520;-70
2021/08/25 07:39:32;;;;;;;58.70;3.53;;;14.20;1.00;;;;;;5072942;28;20477;-70
2021/08/25 07:41:59;;;;;;;59.00;3.50;;;14.30;1.00;;;;;;5073040;28;20917;-69
2021/08/25 07:44:26;;;;;;;58.27;2.97;;;14.40;1.00;;;;;;5072988;28;20873;-70
2021/08/25 07:46:55;;;;;;;58.70;3.13;;;14.50;1.00;;;;;;5072806;28;20445;-70
2021/08/25 07:49:24;;;;;;;58.07;3.00;;;14.60;1.00;;;;;;5072337;28;20460;-69
2021/08/25 07:51:51;;;;;;;58.40;3.10;;;14.70;1.00;;;;;;5072885;28;20495;-70
2021/08/25 07:54:18;;;;;;;58.90;3.50;;;14.80;1.00;;;;;;5072956;28;20548;-70
2021/08/25 07:56:45;;;;;;;58.77;3.40;;;15.00;1.00;;;;;;5072547;28;20523;-70
2021/08/25 07:59:12;;;;;;;59.10;3.30;;;15.10;1.00;;;;;;5072364;28;20542;-70
2021/08/25 08:01:39;;;;;;;59.97;3.53;;;15.20;1.00;;;;;;5072346;28;20492;-71
2021/08/25 08:04:06;;;;;;;58.33;2.63;;;15.30;1.00;;;;;;5072433;28;20541;-71
2021/08/25 08:06:34;;;;;;;58.13;2.80;;;15.40;1.00;;;;;;5072588;28;20984;-70
2021/08/25 08:09:01;;;;;;;58.43;3.37;;;15.50;1.00;;;;;;5072355;28;20449;-71
2021/08/25 08:11:28;;;;;;;58.37;2.93;;;15.60;1.00;;;;;;5072060;28;20453;-70
2021/08/25 08:13:55;;;;;;;58.67;3.37;;;15.70;1.00;;;;;;5072506;28;20548;-71
2021/08/25 08:16:22;;;;;;;58.80;4.10;;;15.80;1.00;;;;;;5072003;28;20488;-70
2021/08/25 08:18:58;;;;;;;58.37;2.93;;;15.90;1.00;;;;;;5072054;28;20450;-70
2021/08/25 08:21:27;;;;;;;58.30;2.87;;;16.00;1.00;;;;;;5071732;28;20449;-70
2021/08/25 08:23:56;;;;;;;58.50;2.90;;;16.10;1.00;;;;;;5072293;28;20449;-70
2021/08/25 08:26:23;;;;;;;59.30;3.00;;;16.30;1.00;;;;;;5072215;28;20448;-71
2021/08/25 08:28:50;;;;;;;58.30;3.10;;;16.40;1.00;;;;;;5072035;28;20758;-70
2021/08/25 08:31:17;;;;;;;58.30;2.90;;;16.50;1.00;;;;;;5072047;28;20538;-71
2021/08/25 08:33:45;;;;;;;58.27;2.60;;;16.60;1.00;;;;;;5072048;28;20458;-71
2021/08/25 08:36:12;;;;;;;59.63;3.47;;;16.70;1.00;;;;;;5071973;28;20792;-70
2021/08/25 08:38:39;;;;;;;58.77;3.30;;;16.80;1.00;;;;;;5071906;28;20996;-70
2021/08/25 08:41:07;;;;;;;59.67;3.67;;;17.00;1.00;;;;;;5071822;28;20904;-71
2021/08/25 08:43:34;;;;;;;58.40;3.23;;;17.10;1.00;;;;;;5071761;28;20552;-70
2021/08/25 08:46:02;;;;;;;58.73;2.67;;;17.20;1.00;;;;;;5072032;28;20454;-71
2021/08/25 08:48:34;;;;;;;57.97;2.40;;;17.30;1.00;;;;;;5072115;28;20545;-70
2021/08/25 08:51:01;;;;;;;58.20;3.10;;;17.40;1.00;;;;;;5071917;28;20768;-70
2021/08/25 08:53:28;;;;;;;58.70;3.23;;;17.50;1.00;;;;;;5071801;28;20561;-70
2021/08/25 08:55:55;;;;;;;58.17;2.70;;;17.60;1.00;;;;;;5071706;28;20638;-70
2021/08/25 08:58:23;;;;;;;58.10;2.67;;;17.90;1.00;;;;;;5071947;28;20593;-70
2021/08/25 09:00:50;;;;;;;58.60;3.50;;;18.10;1.00;;;;;;5071686;28;20984;-71
2021/08/25 09:03:26;;;;;;;58.17;2.70;;;18.30;1.00;;;;;;5071561;28;20486;-70
2021/08/25 09:05:54;;;;;;;58.60;3.83;;;18.50;1.00;;;;;;5071712;28;20498;-71
2021/08/25 09:08:24;;;;;;;58.30;2.60;;;18.60;1.00;;;;;;5071663;28;20451;-70
2021/08/25 09:11:01;;;;;;;58.23;2.80;;;18.70;1.00;;;;;;5071465;28;20450;-71
2021/08/25 09:13:39;;;;;;;57.97;2.87;;;18.90;1.00;;;;;;5072013;28;20883;-71
2021/08/25 09:16:07;;;;;;;58.27;2.60;;;19.20;1.00;;;;;;5071540;28;20458;-71
2021/08/25 09:18:34;;;;;;;58.17;2.83;;;19.30;1.00;;;;;;5071499;28;20583;-70
2021/08/25 09:21:01;;;;;;;57.83;2.80;;;19.50;1.00;;;;;;5071179;28;20551;-70
2021/08/25 09:23:30;;;;;;;58.27;3.20;;;19.60;1.00;;;;;;5071697;28;20899;-70
2021/08/25 09:25:59;;;;;;;57.60;2.50;;;19.80;1.00;;;;;;5071520;28;20872;-71
2021/08/25 09:28:30;;;;;;;58.17;2.50;;;20.00;1.00;;;;;;5071486;28;20441;-71
2021/08/25 09:31:04;;;;;;;58.10;2.97;;;20.20;1.00;;;;;;5071354;28;20451;-70
2021/08/25 09:33:33;;;;;;;58.20;2.93;;;20.30;1.00;;;;;;5074519;28;21065;-71
2021/08/25 09:36:04;;;;;;;58.00;2.50;;;20.50;1.00;;;;;;5075672;28;20449;-71
2021/08/25 09:38:33;;;;;;;58.10;2.50;;;20.70;1.00;;;;;;5075127;28;21088;-71
2021/08/25 09:41:04;;;;;;;59.63;3.13;;;20.80;1.00;;;;;;5075027;28;20532;-71
2021/08/25 09:43:40;;;;;;;57.93;2.63;;;21.00;1.00;;;;;;5074980;28;20543;-72
2021/08/25 09:46:14;;;;;;;57.67;2.70;;;21.10;1.00;;;;;;5075060;28;20495;-71
2021/08/25 09:48:43;;;;;;;58.20;3.23;;;21.30;1.00;;;;;;5075248;28;20446;-69
2021/08/25 09:51:11;;;;;;;58.80;3.23;;;21.50;1.00;;;;;;5074811;28;20452;-70
2021/08/25 09:53:38;;;;;;;58.10;2.80;;;21.70;1.00;;;;;;5075021;28;20544;-70
2021/08/25 09:56:26;;;;;;;57.60;2.60;;;21.90;1.00;;;;;;5074886;28;20534;-71
2021/08/25 09:58:54;;;;;;;57.57;2.43;;;22.30;1.00;;;;;;5075109;28;20443;-70
2021/08/25 10:01:23;;;;;;;58.10;2.40;;;22.50;1.00;;;;;;5074470;28;20947;-70
2021/08/25 10:03:50;;;;;;;58.40;2.70;;;22.80;1.00;;;;;;5074627;28;20463;-70
2021/08/25 10:06:18;;;;;;;57.53;2.63;;;22.90;1.00;;;;;;5074795;28;20448;-70
2021/08/25 10:08:45;;;;;;;58.03;2.40;;;23.30;1.00;;;;;;5074640;28;20535;-71
2021/08/25 10:11:13;;;;;;;58.03;2.63;;;24.20;1.00;;;;;;5074383;28;21006;-71
2021/08/25 10:13:40;;;;;;;58.30;3.10;;;25.40;1.00;;;;;;5074539;28;20692;-71
2021/08/25 10:16:12;;;;;;;58.07;2.73;;;26.90;1.00;;;;;;5074690;28;20534;-72
2021/08/25 10:18:41;;;;;;;58.87;2.60;;;28.10;1.00;;;;;;5074610;28;20479;-71
2021/08/25 10:21:41;;;;;;;57.97;2.67;;;29.00;1.00;;;;;;5074428;28;20449;-70
2021/08/25 10:24:08;;;;;;;57.97;2.60;;;30.00;1.00;;;;;;5072166;28;20990;-70
2021/08/25 10:27:09;;;;;;;57.63;2.47;;;30.50;1.00;;;;;;5074543;28;20475;-69
2021/08/25 10:30:15;;;;;;;57.80;2.40;;;31.00;1.00;;;;;;5074063;28;20873;-69
2021/08/25 10:33:10;;;;;;;57.50;2.13;;;30.20;1.00;;;;;;5069253;28;20891;-70
2021/08/25 10:35:42;;;;;;;57.73;2.40;;;29.50;1.00;;;;;;5074388;28;20542;-70
2021/08/25 10:38:26;;;;;;;58.30;2.73;;;29.10;1.00;;;;;;5074029;28;20482;-69
2021/08/25 10:41:00;;;;;;;57.53;2.17;;;29.50;1.00;;;;;;5074130;28;20451;-70
2021/08/25 10:43:41;;;;;;;57.90;2.33;;;30.50;1.00;;;;;;5073831;28;20467;-69
2021/08/25 10:46:09;;;;;;;57.50;2.43;;;31.80;1.00;;;;;;5074007;28;20451;-69
2021/08/25 10:48:44;;;;;;;59.80;2.77;;;32.20;1.00;;;;;;5073866;28;20454;-69
2021/08/25 10:51:37;;;;;;;58.00;2.80;;;31.80;1.00;;;;;;5073683;28;20930;-70
2021/08/25 10:54:06;;;;;;;57.67;2.50;;;31.30;1.00;;;;;;5070968;28;20521;-70
2021/08/25 10:56:39;;;;;;;58.00;2.40;;;30.20;1.00;;;;;;5073702;28;20536;-70
2021/08/25 10:59:08;;;;;;;57.90;2.63;;;29.30;1.00;;;;;;5073797;28;20535;-71
2021/08/25 11:01:37;;;;;;;57.80;2.60;;;29.60;1.00;;;;;;5074040;28;20506;-70
2021/08/25 11:04:05;;;;;;;58.17;2.60;;;30.80;1.00;;;;;;5073739;28;20463;-70
2021/08/25 11:06:42;;;;;;;57.50;2.47;;;31.80;1.00;;;;;;5073657;28;20858;-70
2021/08/25 11:09:13;;;;;;;58.00;3.03;;;32.50;1.00;;;;;;5073344;28;20873;-70
2021/08/25 11:11:43;;;;;;;57.97;2.30;;;33.50;1.00;;;;;;5073301;28;20467;-71
2021/08/25 11:14:26;;;;;;;57.73;2.10;;;34.20;1.00;;;;;;5073921;28;20448;-71
2021/08/25 11:16:55;;;;;;;57.30;2.20;;;34.30;1.00;;;;;;5073368;28;20490;-70
2021/08/25 11:19:23;;;;;;;57.97;2.53;;;34.60;1.00;;;;;;5073165;28;20535;-71
2021/08/25 11:21:53;;;;;;;57.23;2.20;;;35.00;1.00;;;;;;5073133;28;20471;-70
2021/08/25 11:24:20;;;;;;;57.47;2.37;;;35.30;1.00;;;;;;5073547;28;20452;-71
2021/08/25 11:26:47;;;;;;;57.23;2.20;;;35.60;1.00;;;;;;5073239;28;20866;-70
2021/08/25 11:29:21;;;;;;;57.20;2.20;;;36.20;1.00;;;;;;5073017;28;20534;-70
2021/08/25 11:31:50;;;;;;;56.90;2.20;;;36.70;1.00;;;;;;5073114;28;20550;-70
2021/08/25 11:34:18;;;;;;;57.20;2.43;;;36.30;1.00;;;;;;5073006;28;20531;-70
2021/08/25 11:37:00;;;;;;;57.27;2.20;;;36.50;1.00;;;;;;5072879;28;20965;-70
2021/08/25 11:39:28;;;;;;;57.60;3.20;;;36.40;1.00;;;;;;5072677;28;20508;-69
2021/08/25 11:41:56;;;;;;;57.20;2.43;;;36.40;1.00;;;;;;5073290;28;20521;-70
2021/08/25 11:44:43;;;;;;;57.17;2.23;;;36.30;1.00;;;;;;5072945;28;20491;-70
2021/08/25 11:47:15;;;;;;;56.90;2.30;;;36.40;1.00;;;;;;5073062;28;20535;-70
2021/08/25 11:49:44;;;;;;;57.70;2.67;;;36.90;1.00;;;;;;5072454;28;20448;-70
2021/08/25 11:52:13;;;;;;;57.13;2.60;;;37.60;1.00;;;;;;5072580;28;20467;-70
2021/08/25 11:54:41;;;;;;;57.60;2.60;;;37.80;1.00;;;;;;5071955;28;20543;-70
2021/08/25 11:57:11;;;;;;;57.70;3.00;;;37.00;1.00;;;;;;5072459;28;20538;-69
2021/08/25 11:59:54;;;;;;;57.70;2.10;;;35.50;1.00;;;;;;5072551;28;20447;-70
2021/08/25 12:02:21;;;;;;;57.80;2.23;;;35.10;1.00;;;;;;5072586;28;20554;-69
2021/08/25 12:04:48;;;;;;;57.10;2.37;;;35.10;1.00;;;;;;5072343;28;20538;-70
2021/08/25 12:07:17;;;;;;;57.07;2.27;;;35.40;1.00;;;;;;5072514;28;20816;-70
2021/08/25 12:09:45;;;;;;;56.97;2.47;;;35.90;1.00;;;;;;5071993;28;20451;-71
2021/08/25 12:12:12;;;;;;;57.17;2.10;;;36.40;1.00;;;;;;5072428;28;20468;-70
2021/08/25 12:14:57;;;;;;;57.17;2.30;;;36.10;1.00;;;;;;5072457;28;20530;-70
2021/08/25 12:17:24;;;;;;;57.40;2.50;;;35.30;1.00;;;;;;5072340;28;20481;-70
2021/08/25 12:19:55;;;;;;;57.20;2.10;;;35.90;1.00;;;;;;5072047;28;20443;-70
2021/08/25 12:22:26;;;;;;;58.07;2.77;;;35.70;1.00;;;;;;5072206;28;20897;-70
2021/08/25 12:24:53;;;;;;;57.50;2.20;;;35.10;1.00;;;;;;5072422;28;20454;-69
2021/08/25 12:27:20;;;;;;;57.60;2.73;;;35.10;1.00;;;;;;5072291;28;20457;-70
2021/08/25 12:29:47;;;;;;;56.87;1.93;;;35.30;1.00;;;;;;5071913;28;20535;-70
2021/08/25 12:32:14;;;;;;;58.00;2.43;;;34.50;1.00;;;;;;5072057;28;20489;-70
2021/08/25 12:35:02;;;;;;;60.10;2.87;;;33.00;1.00;;;;;;5071874;28;20490;-71
2021/08/25 12:37:49;;;;;;;57.57;2.50;;;32.20;1.00;;;;;;5071877;28;20459;-70
2021/08/25 12:40:19;;;;;;;57.50;2.20;;;31.80;1.00;;;;;;5071734;28;20450;-70
2021/08/25 12:42:47;;;;;;;58.20;2.60;;;31.40;1.00;;;;;;5071993;28;20517;-70
2021/08/25 12:45:14;;;;;;;58.00;3.37;;;32.10;1.00;;;;;;5071835;28;20965;-70
2021/08/25 12:47:40;;;;;;;57.40;2.43;;;33.20;1.00;;;;;;5072099;28;20444;-70
2021/08/25 12:50:08;;;;;;;58.73;2.60;;;34.50;1.00;;;;;;5071560;28;20940;-71
2021/08/25 12:52:35;;;;;;;57.20;2.90;;;35.20;1.00;;;;;;5071885;28;20467;-70
2021/08/25 12:55:05;;;;;;;57.30;2.60;;;36.00;1.00;;;;;;5071860;28;20446;-71